Airfield :
LOGIN :

Register | Disclaimer

   EN    FR    IT 

 










Legend :    VFR   Marginal VFR   IFR   Intensive IFR   Very Intensive IFR
Visi :
Ceiling :
>= 8 km
>= 3000ft
5 to 8 km
1000 to 3000 ft
1500m to 5 km
500 to 1000 ft
800 to 1500m
200 to 500 ft
< 800m
< 200 ft
Symbols :   Thunderstorms  Fog  Heavy snow  Heavy precipitations  Wind > 20 kt
SIGMETs :     Misc.  Thunderstorms  Icing  Turbulence  Mountain Waves  Volcanic Ashes







- Airport Elevation : 1197 ft
- IATA code : SPM


ETAD - Spangdahlem Ab

CURRENT METAR :
  • 190156Z AUTO 04006KT 9999 CLR 09/07 A3019 RMK AO2 SLP214 T00910072 $

EXPIRED METARs :
  • 190056Z AUTO 03005KT 9999 CLR 09/07 A3020 RMK AO2 SLP216 T00880072 $
  • 182356Z AUTO 05003KT 9999 CLR 10/08 A3020 RMK AO2 SLP216 T00950076 10112 20094 58001 $

TAF TAF ETAD
Valid from the 18 at 20:00 until the 20 at 02:00 UTC


182002Z 1820/2002 05006KT 9999 FEW020 QNH3019INS
BECMG 1903/1904 06006KT 5000 BR BKN020 QNH3021INS
BECMG 1909/1910 05006KT 8000 BR BKN020 QNH3023INS
BECMG 1912/1913 05009KT 9999 NSW BKN020 QNH3025INS TX14/1914Z TN08/1904Z LAST NO AMDS AFT 1820 NEXT 1904
No reported NOTAMs for that airfield.



MET'MAP, your aeronautical weather chart ! - Copyright ORBIFLY December 2007 - Disclaimer

ORBIFLY MET'MAP TEAM :

Programming & Development : Alexandra Zaïnal
Concept & Development : Baudouin d'Aumeries
Co-Development & Prog : Marc-Olivier Méhu
Technical & hardware support : Manuel Goepfert

Contact : metmap@orbifly.com




SOURCES & CREDITS :

   NOAA